sensor_id;sensor_type;location;lat;lon;timestamp;pressure;altitude;pressure_sealevel;temperature;humidity
74045;BME280;62389;51.412;5.436;2023-07-31T00:00:06;101009.38;;;15.44;100.00
74045;BME280;62389;51.412;5.436;2023-07-31T00:02:34;100992.59;;;15.45;100.00
74045;BME280;62389;51.412;5.436;2023-07-31T00:04:59;100989.91;;;15.46;100.00
74045;BME280;62389;51.412;5.436;2023-07-31T00:07:25;100994.22;;;15.47;100.00
74045;BME280;62389;51.412;5.436;2023-07-31T00:09:50;100992.44;;;15.48;100.00
74045;BME280;62389;51.412;5.436;2023-07-31T00:12:15;100995.72;;;15.51;100.00
74045;BME280;62389;51.412;5.436;2023-07-31T00:14:41;100993.94;;;15.52;100.00
74045;BME280;62389;51.412;5.436;2023-07-31T00:17:06;100993.84;;;15.53;100.00
74045;BME280;62389;51.412;5.436;2023-07-31T00:19:31;100996.47;;;15.53;100.00
74045;BME280;62389;51.412;5.436;2023-07-31T00:21:57;100992.88;;;15.54;100.00
74045;BME280;62389;51.412;5.436;2023-07-31T00:24:22;100991.94;;;15.55;100.00
74045;BME280;62389;51.412;5.436;2023-07-31T00:26:47;100986.75;;;15.54;100.00
74045;BME280;62389;51.412;5.436;2023-07-31T00:29:13;100992.88;;;15.54;100.00
74045;BME280;62389;51.412;5.436;2023-07-31T00:31:38;100983.94;;;15.57;100.00
74045;BME280;62389;51.412;5.436;2023-07-31T00:34:03;100982.91;;;15.60;100.00
74045;BME280;62389;51.412;5.436;2023-07-31T00:36:29;100979.41;;;15.59;100.00
74045;BME280;62389;51.412;5.436;2023-07-31T00:38:54;100985.53;;;15.60;100.00
74045;BME280;62389;51.412;5.436;2023-07-31T00:41:19;100979.53;;;15.58;100.00
74045;BME280;62389;51.412;5.436;2023-07-31T00:43:45;100974.25;;;15.58;100.00
74045;BME280;62389;51.412;5.436;2023-07-31T00:46:10;100974.25;;;15.58;100.00
74045;BME280;62389;51.412;5.436;2023-07-31T00:48:36;100980.66;;;15.53;100.00
74045;BME280;62389;51.412;5.436;2023-07-31T00:51:02;100974.53;;;15.53;100.00
74045;BME280;62389;51.412;5.436;2023-07-31T00:53:28;100971.06;;;15.52;100.00
74045;BME280;62389;51.412;5.436;2023-07-31T00:55:53;100975.38;;;15.53;100.00
74045;BME280;62389;51.412;5.436;2023-07-31T00:58:19;100966.63;;;15.53;100.00
74045;BME280;62389;51.412;5.436;2023-07-31T01:00:44;100972.00;;;15.51;100.00
74045;BME280;62389;51.412;5.436;2023-07-31T01:03:11;100974.72;;;15.50;100.00
74045;BME280;62389;51.412;5.436;2023-07-31T01:05:59;100968.81;;;15.46;100.00
74045;BME280;62389;51.412;5.436;2023-07-31T01:09:03;100970.50;;;15.47;100.00
74045;BME280;62389;51.412;5.436;2023-07-31T01:11:48;100965.22;;;15.47;100.00
74045;BME280;62389;51.412;5.436;2023-07-31T01:14:15;100965.22;;;15.47;100.00
74045;BME280;62389;51.412;5.436;2023-07-31T01:16:40;100959.94;;;15.47;100.00
74045;BME280;62389;51.412;5.436;2023-07-31T01:19:08;100961.63;;;15.48;100.00
74045;BME280;62389;51.412;5.436;2023-07-31T01:21:53;100976.72;;;15.46;100.00
74045;BME280;62389;51.412;5.436;2023-07-31T01:27:14;100962.19;;;15.39;100.00
74045;BME280;62389;51.412;5.436;2023-07-31T01:32:11;100962.41;;;15.36;100.00
74045;BME280;62389;51.412;5.436;2023-07-31T01:34:37;100961.53;;;15.36;100.00
74045;BME280;62389;51.412;5.436;2023-07-31T01:37:04;100974.63;;;15.37;100.00
74045;BME280;62389;51.412;5.436;2023-07-31T01:39:29;100965.97;;;15.35;100.00
74045;BME280;62389;51.412;5.436;2023-07-31T01:41:55;100959.09;;;15.33;100.00
74045;BME280;62389;51.412;5.436;2023-07-31T01:44:20;100959.94;;;15.33;100.00
74045;BME280;62389;51.412;5.436;2023-07-31T01:46:45;100959.84;;;15.35;100.00
74045;BME280;62389;51.412;5.436;2023-07-31T01:49:11;100955.63;;;15.32;100.00
74045;BME280;62389;51.412;5.436;2023-07-31T01:51:36;100960.91;;;15.32;100.00
74045;BME280;62389;51.412;5.436;2023-07-31T01:54:02;100961.06;;;15.29;100.00
74045;BME280;62389;51.412;5.436;2023-07-31T01:56:28;100958.44;;;15.29;100.00
74045;BME280;62389;51.412;5.436;2023-07-31T01:58:53;100951.59;;;15.26;100.00
74045;BME280;62389;51.412;5.436;2023-07-31T02:01:18;100945.44;;;15.26;100.00
74045;BME280;62389;51.412;5.436;2023-07-31T02:03:44;100944.53;;;15.27;100.00
74045;BME280;62389;51.412;5.436;2023-07-31T02:06:09;100941.88;;;15.27;100.00
74045;BME280;62389;51.412;5.436;2023-07-31T02:08:35;100929.72;;;15.24;100.00
74045;BME280;62389;51.412;5.436;2023-07-31T02:11:00;100927.19;;;15.23;100.00
74045;BME280;62389;51.412;5.436;2023-07-31T02:13:25;100920.13;;;15.23;100.00
74045;BME280;62389;51.412;5.436;2023-07-31T02:15:51;100917.63;;;15.22;100.00
74045;BME280;62389;51.412;5.436;2023-07-31T02:18:16;100917.63;;;15.22;100.00
74045;BME280;62389;51.412;5.436;2023-07-31T02:20:42;100915.16;;;15.19;100.00
74045;BME280;62389;51.412;5.436;2023-07-31T02:23:07;100913.34;;;15.19;100.00
74045;BME280;62389;51.412;5.436;2023-07-31T02:25:32;100908.88;;;15.21;100.00
74045;BME280;62389;51.412;5.436;2023-07-31T02:27:58;100907.06;;;15.22;100.00
74045;BME280;62389;51.412;5.436;2023-07-31T02:30:23;100905.34;;;15.21;100.00
74045;BME280;62389;51.412;5.436;2023-07-31T02:32:49;100906.22;;;15.21;100.00
74045;BME280;62389;51.412;5.436;2023-07-31T02:35:14;100900.97;;;15.21;100.00
74045;BME280;62389;51.412;5.436;2023-07-31T02:37:42;100898.22;;;15.23;100.00
74045;BME280;62389;51.412;5.436;2023-07-31T02:40:08;100900.84;;;15.23;100.00
74045;BME280;62389;51.412;5.436;2023-07-31T02:42:33;100897.38;;;15.22;100.00
74045;BME280;62389;51.412;5.436;2023-07-31T02:44:58;100893.91;;;15.22;100.00
74045;BME280;62389;51.412;5.436;2023-07-31T02:47:24;100888.63;;;15.22;100.00
74045;BME280;62389;51.412;5.436;2023-07-31T02:49:49;100906.88;;;15.25;100.00
74045;BME280;62389;51.412;5.436;2023-07-31T02:52:15;100892.75;;;15.26;100.00
74045;BME280;62389;51.412;5.436;2023-07-31T02:54:40;100887.47;;;15.26;100.00
74045;BME280;62389;51.412;5.436;2023-07-31T02:57:05;100891.81;;;15.27;100.00
74045;BME280;62389;51.412;5.436;2023-07-31T02:59:31;100881.91;;;15.31;100.00
74045;BME280;62389;51.412;5.436;2023-07-31T03:01:56;100885.41;;;15.31;100.00
74045;BME280;62389;51.412;5.436;2023-07-31T03:04:21;100890.66;;;15.31;100.00
74045;BME280;62389;51.412;5.436;2023-07-31T03:06:47;100874.78;;;15.33;100.00
74045;BME280;62389;51.412;5.436;2023-07-31T03:09:12;100885.09;;;15.36;100.00
74045;BME280;62389;51.412;5.436;2023-07-31T03:11:37;100873.66;;;15.37;100.00
74045;BME280;62389;51.412;5.436;2023-07-31T03:14:03;100876.34;;;15.35;100.00
74045;BME280;62389;51.412;5.436;2023-07-31T03:16:28;100876.28;;;15.37;100.00
74045;BME280;62389;51.412;5.436;2023-07-31T03:18:54;100877.13;;;15.37;100.00
74045;BME280;62389;51.412;5.436;2023-07-31T03:21:20;100876.28;;;15.37;100.00
74045;BME280;62389;51.412;5.436;2023-07-31T03:23:45;100887.66;;;15.37;100.00
74045;BME280;62389;51.412;5.436;2023-07-31T03:26:10;100884.94;;;15.39;100.00
74045;BME280;62389;51.412;5.436;2023-07-31T03:28:36;100878.63;;;15.41;100.00
74045;BME280;62389;51.412;5.436;2023-07-31T03:31:01;100874.00;;;15.45;100.00
74045;BME280;62389;51.412;5.436;2023-07-31T03:33:27;100879.19;;;15.46;100.00
74045;BME280;62389;51.412;5.436;2023-07-31T03:35:53;100871.28;;;15.46;100.00
74045;BME280;62389;51.412;5.436;2023-07-31T03:38:19;100869.47;;;15.47;100.00
74045;BME280;62389;51.412;5.436;2023-07-31T03:40:44;100866.75;;;15.48;100.00
74045;BME280;62389;51.412;5.436;2023-07-31T03:43:10;100861.47;;;15.48;100.00
74045;BME280;62389;51.412;5.436;2023-07-31T03:45:36;100861.38;;;15.50;100.00
74045;BME280;62389;51.412;5.436;2023-07-31T03:48:02;100856.00;;;15.51;100.00
74045;BME280;62389;51.412;5.436;2023-07-31T03:50:27;100850.75;;;15.51;100.00
74045;BME280;62389;51.412;5.436;2023-07-31T03:52:53;100847.16;;;15.52;100.00
74045;BME280;62389;51.412;5.436;2023-07-31T03:55:18;100852.31;;;15.54;100.00
74045;BME280;62389;51.412;5.436;2023-07-31T03:57:43;100845.16;;;15.56;100.00
74045;BME280;62389;51.412;5.436;2023-07-31T04:00:09;100839.78;;;15.58;100.00
74045;BME280;62389;51.412;5.436;2023-07-31T04:02:35;100834.53;;;15.58;100.00
74045;BME280;62389;51.412;5.436;2023-07-31T04:05:00;100837.91;;;15.60;100.00
74045;BME280;62389;51.412;5.436;2023-07-31T04:07:26;100829.03;;;15.61;100.00
74045;BME280;62389;51.412;5.436;2023-07-31T04:09:51;100825.47;;;15.62;100.00
74045;BME280;62389;51.412;5.436;2023-07-31T04:12:16;100829.72;;;15.64;100.00
74045;BME280;62389;51.412;5.436;2023-07-31T04:14:42;100822.56;;;15.66;100.00
74045;BME280;62389;51.412;5.436;2023-07-31T04:17:07;100820.69;;;15.68;100.00
74045;BME280;62389;51.412;5.436;2023-07-31T04:19:32;100816.25;;;15.69;100.00
74045;BME280;62389;51.412;5.436;2023-07-31T04:21:58;100816.97;;;15.71;100.00
74045;BME280;62389;51.412;5.436;2023-07-31T04:24:23;100807.19;;;15.73;100.00
74045;BME280;62389;51.412;5.436;2023-07-31T04:26:52;100815.84;;;15.75;100.00
74045;BME280;62389;51.412;5.436;2023-07-31T04:29:17;100804.34;;;15.76;100.00
74045;BME280;62389;51.412;5.436;2023-07-31T04:31:43;100807.84;;;15.76;100.00
74045;BME280;62389;51.412;5.436;2023-07-31T04:34:08;100807.84;;;15.76;100.00
74045;BME280;62389;51.412;5.436;2023-07-31T04:36:34;100806.06;;;15.77;100.00
74045;BME280;62389;51.412;5.436;2023-07-31T04:39:00;100804.25;;;15.77;100.00
74045;BME280;62389;51.412;5.436;2023-07-31T04:41:26;100807.84;;;15.76;100.00
74045;BME280;62389;51.412;5.436;2023-07-31T04:43:51;100792.88;;;15.77;100.00
74045;BME280;62389;51.412;5.436;2023-07-31T04:46:16;100788.50;;;15.76;100.00
74045;BME280;62389;51.412;5.436;2023-07-31T04:48:42;100785.78;;;15.77;100.00
74045;BME280;62389;51.412;5.436;2023-07-31T04:51:07;100784.00;;;15.78;100.00
74045;BME280;62389;51.412;5.436;2023-07-31T04:53:34;100787.47;;;15.78;100.00
74045;BME280;62389;51.412;5.436;2023-07-31T04:55:59;100785.56;;;15.80;100.00
74045;BME280;62389;51.412;5.436;2023-07-31T04:58:25;100785.50;;;15.82;100.00
74045;BME280;62389;51.412;5.436;2023-07-31T05:00:50;100780.22;;;15.82;100.00
74045;BME280;62389;51.412;5.436;2023-07-31T05:03:15;100778.50;;;15.81;100.00
74045;BME280;62389;51.412;5.436;2023-07-31T05:05:41;100787.38;;;15.80;100.00
74045;BME280;62389;51.412;5.436;2023-07-31T05:08:06;100773.34;;;15.79;100.00
74045;BME280;62389;51.412;5.436;2023-07-31T05:10:31;100776.09;;;15.78;100.00
74045;BME280;62389;51.412;5.436;2023-07-31T05:12:57;100771.31;;;15.70;100.00
74045;BME280;62389;51.412;5.436;2023-07-31T05:15:22;100777.84;;;15.65;100.00
74045;BME280;62389;51.412;5.436;2023-07-31T05:17:48;100777.38;;;15.58;100.00
74045;BME280;62389;51.412;5.436;2023-07-31T05:20:13;100778.50;;;15.54;100.00
74045;BME280;62389;51.412;5.436;2023-07-31T05:22:40;100761.13;;;15.51;100.00
74045;BME280;62389;51.412;5.436;2023-07-31T05:25:06;100772.69;;;15.49;100.00
74045;BME280;62389;51.412;5.436;2023-07-31T05:27:32;100769.09;;;15.50;100.00
74045;BME280;62389;51.412;5.436;2023-07-31T05:29:57;100768.91;;;15.53;100.00
74045;BME280;62389;51.412;5.436;2023-07-31T05:32:23;100769.75;;;15.53;100.00
74045;BME280;62389;51.412;5.436;2023-07-31T05:34:51;100771.44;;;15.54;100.00
74045;BME280;62389;51.412;5.436;2023-07-31T05:37:17;100766.16;;;15.54;100.00
74045;BME280;62389;51.412;5.436;2023-07-31T05:39:42;100767.00;;;15.55;100.00
74045;BME280;62389;51.412;5.436;2023-07-31T05:42:07;100763.34;;;15.58;100.00
74045;BME280;62389;51.412;5.436;2023-07-31T05:44:33;100756.28;;;15.58;100.00
74045;BME280;62389;51.412;5.436;2023-07-31T05:46:58;100753.75;;;15.57;100.00
74045;BME280;62389;51.412;5.436;2023-07-31T05:49:23;100756.69;;;15.52;100.00
74045;BME280;62389;51.412;5.436;2023-07-31T05:51:49;100755.19;;;15.48;100.00
74045;BME280;62389;51.412;5.436;2023-07-31T05:54:14;100758.31;;;15.40;100.00
74045;BME280;62389;51.412;5.436;2023-07-31T05:56:39;100752.41;;;15.37;100.00
74045;BME280;62389;51.412;5.436;2023-07-31T05:59:05;100739.44;;;15.34;100.00
74045;BME280;62389;51.412;5.436;2023-07-31T06:01:30;100749.13;;;15.33;100.00
74045;BME280;62389;51.412;5.436;2023-07-31T06:03:56;100745.66;;;15.33;100.00
74045;BME280;62389;51.412;5.436;2023-07-31T06:06:21;100736.13;;;15.30;100.00
74045;BME280;62389;51.412;5.436;2023-07-31T06:08:46;100740.47;;;15.31;100.00
74045;BME280;62389;51.412;5.436;2023-07-31T06:11:12;100732.78;;;15.28;100.00
74045;BME280;62389;51.412;5.436;2023-07-31T06:13:37;100738.22;;;15.25;100.00
74045;BME280;62389;51.412;5.436;2023-07-31T06:16:03;100741.81;;;15.24;100.00
74045;BME280;62389;51.412;5.436;2023-07-31T06:18:32;100738.63;;;15.19;100.00
74045;BME280;62389;51.412;5.436;2023-07-31T06:20:57;100730.00;;;15.17;100.00
74045;BME280;62389;51.412;5.436;2023-07-31T06:23:23;100736.00;;;15.19;100.00
74045;BME280;62389;51.412;5.436;2023-07-31T06:25:48;100736.00;;;15.19;100.00
74045;BME280;62389;51.412;5.436;2023-07-31T06:28:13;100720.31;;;15.17;100.00
74045;BME280;62389;51.412;5.436;2023-07-31T06:30:39;100722.09;;;15.17;100.00
74045;BME280;62389;51.412;5.436;2023-07-31T06:33:04;100730.19;;;15.14;100.00
74045;BME280;62389;51.412;5.436;2023-07-31T06:35:30;100732.81;;;15.14;100.00
74045;BME280;62389;51.412;5.436;2023-07-31T06:37:55;100721.31;;;15.15;100.00
74045;BME280;62389;51.412;5.436;2023-07-31T06:40:22;100723.97;;;15.15;100.00
74045;BME280;62389;51.412;5.436;2023-07-31T06:42:47;100713.53;;;15.13;100.00
74045;BME280;62389;51.412;5.436;2023-07-31T06:45:12;100721.25;;;15.16;100.00
74045;BME280;62389;51.412;5.436;2023-07-31T06:47:38;100708.06;;;15.16;100.00
74045;BME280;62389;51.412;5.436;2023-07-31T06:50:04;100700.91;;;15.18;100.00
74045;BME280;62389;51.412;5.436;2023-07-31T06:52:29;100706.28;;;15.17;100.00
74045;BME280;62389;51.412;5.436;2023-07-31T06:55:15;100706.16;;;15.18;100.00
74045;BME280;62389;51.412;5.436;2023-07-31T06:57:43;100701.63;;;15.20;100.00
74045;BME280;62389;51.412;5.436;2023-07-31T07:00:08;100699.00;;;15.20;100.00
74045;BME280;62389;51.412;5.436;2023-07-31T07:02:34;100709.66;;;15.19;100.00
74045;BME280;62389;51.412;5.436;2023-07-31T07:04:59;100702.81;;;15.16;100.00
74045;BME280;62389;51.412;5.436;2023-07-31T07:07:25;100700.06;;;15.18;100.00
74045;BME280;62389;51.412;5.436;2023-07-31T07:09:50;100709.66;;;15.19;100.00
74045;BME280;62389;51.412;5.436;2023-07-31T07:12:15;100709.47;;;15.22;100.00
74045;BME280;62389;51.412;5.436;2023-07-31T07:14:41;100704.94;;;15.24;100.00
74045;BME280;62389;51.412;5.436;2023-07-31T07:17:06;100698.91;;;15.22;100.00
74045;BME280;62389;51.412;5.436;2023-07-31T07:19:32;100692.69;;;15.23;100.00
74045;BME280;62389;51.412;5.436;2023-07-31T07:21:57;100693.66;;;15.22;100.00
74045;BME280;62389;51.412;5.436;2023-07-31T07:24:24;100685.00;;;15.20;100.00
74045;BME280;62389;51.412;5.436;2023-07-31T07:26:50;100692.69;;;15.23;100.00
74045;BME280;62389;51.412;5.436;2023-07-31T07:29:15;100689.31;;;15.21;100.00
74045;BME280;62389;51.412;5.436;2023-07-31T07:31:40;100680.47;;;15.22;100.00
74045;BME280;62389;51.412;5.436;2023-07-31T07:34:06;100680.19;;;15.26;100.00
74045;BME280;62389;51.412;5.436;2023-07-31T07:36:31;100686.28;;;15.27;100.00
74045;BME280;62389;51.412;5.436;2023-07-31T07:38:57;100681.03;;;15.27;100.00
74045;BME280;62389;51.412;5.436;2023-07-31T07:41:23;100686.28;;;15.27;100.00
74045;BME280;62389;51.412;5.436;2023-07-31T07:43:48;100685.44;;;15.26;100.00
74045;BME280;62389;51.412;5.436;2023-07-31T07:46:13;100695.88;;;15.28;100.00
74045;BME280;62389;51.412;5.436;2023-07-31T07:48:39;100692.47;;;15.26;100.00
74045;BME280;62389;51.412;5.436;2023-07-31T07:51:04;100690.81;;;15.25;100.00
74045;BME280;62389;51.412;5.436;2023-07-31T07:53:30;100687.31;;;15.24;100.00
74045;BME280;62389;51.412;5.436;2023-07-31T07:55:55;100677.75;;;15.23;100.00
74045;BME280;62389;51.412;5.436;2023-07-31T07:58:20;100686.47;;;15.24;100.00
74045;BME280;62389;51.412;5.436;2023-07-31T08:00:50;100689.31;;;15.21;100.00
74045;BME280;62389;51.412;5.436;2023-07-31T08:03:16;100688.47;;;15.20;100.00
74045;BME280;62389;51.412;5.436;2023-07-31T08:05:43;100680.47;;;15.22;100.00
74045;BME280;62389;51.412;5.436;2023-07-31T08:08:19;100684.03;;;15.21;100.00
74045;BME280;62389;51.412;5.436;2023-07-31T08:10:45;100682.16;;;15.23;100.00
74045;BME280;62389;51.412;5.436;2023-07-31T08:13:11;100675.22;;;15.22;100.00
74045;BME280;62389;51.412;5.436;2023-07-31T08:15:37;100678.56;;;15.24;100.00
74045;BME280;62389;51.412;5.436;2023-07-31T08:18:02;100680.38;;;15.23;100.00
74045;BME280;62389;51.412;5.436;2023-07-31T08:20:28;100675.94;;;15.24;100.00
74045;BME280;62389;51.412;5.436;2023-07-31T08:22:53;100678.38;;;15.27;100.00
74045;BME280;62389;51.412;5.436;2023-07-31T08:25:19;100681.75;;;15.29;100.00
74045;BME280;62389;51.412;5.436;2023-07-31T08:27:44;100676.38;;;15.31;100.00
74045;BME280;62389;51.412;5.436;2023-07-31T08:30:11;100678.38;;;15.27;100.00
74045;BME280;62389;51.412;5.436;2023-07-31T08:32:37;100685.44;;;15.26;100.00
74045;BME280;62389;51.412;5.436;2023-07-31T08:35:02;100671.63;;;15.23;100.00
74045;BME280;62389;51.412;5.436;2023-07-31T08:37:28;100670.78;;;15.22;100.00
74045;BME280;62389;51.412;5.436;2023-07-31T08:39:53;100673.19;;;15.25;100.00
74045;BME280;62389;51.412;5.436;2023-07-31T08:42:20;100681.09;;;15.25;100.00
74045;BME280;62389;51.412;5.436;2023-07-31T08:44:46;100671.63;;;15.23;100.00
74045;BME280;62389;51.412;5.436;2023-07-31T08:47:12;100675.00;;;15.25;100.00
74045;BME280;62389;51.412;5.436;2023-07-31T08:49:38;100674.03;;;15.26;100.00
74045;BME280;62389;51.412;5.436;2023-07-31T08:52:04;100674.81;;;15.28;100.00
74045;BME280;62389;51.412;5.436;2023-07-31T08:54:30;100670.38;;;15.28;100.00
74045;BME280;62389;51.412;5.436;2023-07-31T08:56:58;100665.00;;;15.30;100.00
74045;BME280;62389;51.412;5.436;2023-07-31T08:59:26;100668.47;;;15.31;100.00
74045;BME280;62389;51.412;5.436;2023-07-31T09:01:55;100671.88;;;15.33;100.00
74045;BME280;62389;51.412;5.436;2023-07-31T09:04:23;100663.97;;;15.33;100.00
74045;BME280;62389;51.412;5.436;2023-07-31T09:06:49;100669.88;;;15.36;100.00
74045;BME280;62389;51.412;5.436;2023-07-31T09:09:16;100666.19;;;15.39;100.00
74045;BME280;62389;51.412;5.436;2023-07-31T09:11:41;100665.22;;;15.40;100.00
74045;BME280;62389;51.412;5.436;2023-07-31T09:14:08;100677.25;;;15.44;100.00
74045;BME280;62389;51.412;5.436;2023-07-31T09:16:34;100661.25;;;15.47;100.00
74045;BME280;62389;51.412;5.436;2023-07-31T09:19:00;100658.41;;;15.50;100.00
74045;BME280;62389;51.412;5.436;2023-07-31T09:21:27;100653.97;;;15.50;100.00
74045;BME280;62389;51.412;5.436;2023-07-31T09:23:53;100661.69;;;15.53;100.00
74045;BME280;62389;51.412;5.436;2023-07-31T09:26:35;100652.72;;;15.56;100.00
74045;BME280;62389;51.412;5.436;2023-07-31T09:29:04;100655.03;;;15.61;100.00
74045;BME280;62389;51.412;5.436;2023-07-31T09:33:58;100650.25;;;15.67;100.00
74045;BME280;62389;51.412;5.436;2023-07-31T09:36:23;100645.59;;;15.71;100.00
74045;BME280;62389;51.412;5.436;2023-07-31T09:38:49;100645.50;;;15.72;100.00
74045;BME280;62389;51.412;5.436;2023-07-31T09:41:14;100631.25;;;15.75;100.00
74045;BME280;62389;51.412;5.436;2023-07-31T09:43:40;100649.63;;;15.76;100.00
74045;BME280;62389;51.412;5.436;2023-07-31T09:46:13;100642.63;;;15.75;100.00
74045;BME280;62389;51.412;5.436;2023-07-31T09:48:38;100648.56;;;15.79;100.00
74045;BME280;62389;51.412;5.436;2023-07-31T09:51:04;100636.97;;;15.82;100.00
74045;BME280;62389;51.412;5.436;2023-07-31T09:53:30;100645.72;;;15.82;100.00
74045;BME280;62389;51.412;5.436;2023-07-31T09:55:58;100639.50;;;15.83;100.00
74045;BME280;62389;51.412;5.436;2023-07-31T09:58:24;100635.91;;;15.84;100.00
74045;BME280;62389;51.412;5.436;2023-07-31T10:00:52;100635.16;;;15.82;100.00
74045;BME280;62389;51.412;5.436;2023-07-31T10:03:18;100639.59;;;15.82;100.00
74045;BME280;62389;51.412;5.436;2023-07-31T10:05:47;100650.03;;;15.83;100.00
74045;BME280;62389;51.412;5.436;2023-07-31T10:08:15;100638.66;;;15.83;100.00
74045;BME280;62389;51.412;5.436;2023-07-31T10:10:43;100642.84;;;15.85;100.00
74045;BME280;62389;51.412;5.436;2023-07-31T10:13:08;100630.63;;;15.84;100.00
74045;BME280;62389;51.412;5.436;2023-07-31T10:15:35;100634.22;;;15.83;100.00
74045;BME280;62389;51.412;5.436;2023-07-31T10:18:01;100630.63;;;15.84;100.00
74045;BME280;62389;51.412;5.436;2023-07-31T10:20:28;100630.63;;;15.84;100.00
74045;BME280;62389;51.412;5.436;2023-07-31T10:22:57;100628.63;;;15.88;100.00
74045;BME280;62389;51.412;5.436;2023-07-31T10:25:23;100624.91;;;15.90;100.00
74045;BME280;62389;51.412;5.436;2023-07-31T10:27:50;100631.78;;;15.93;100.00
74045;BME280;62389;51.412;5.436;2023-07-31T10:30:20;100624.72;;;15.93;100.00
74045;BME280;62389;51.412;5.436;2023-07-31T10:32:46;100632.50;;;15.95;100.00
74045;BME280;62389;51.412;5.436;2023-07-31T10:35:14;100628.84;;;15.97;100.00
74045;BME280;62389;51.412;5.436;2023-07-31T10:37:42;100633.16;;;15.98;100.00
74045;BME280;62389;51.412;5.436;2023-07-31T10:42:38;100635.47;;;16.03;100.00
74045;BME280;62389;51.412;5.436;2023-07-31T10:45:09;100629.13;;;16.05;100.00
74045;BME280;62389;51.412;5.436;2023-07-31T10:47:45;100632.53;;;16.08;100.00
74045;BME280;62389;51.412;5.436;2023-07-31T10:50:13;100631.75;;;16.18;100.00
74045;BME280;62389;51.412;5.436;2023-07-31T10:52:38;100627.41;;;16.30;100.00
74045;BME280;62389;51.412;5.436;2023-07-31T10:55:30;100642.47;;;16.41;100.00
74045;BME280;62389;51.412;5.436;2023-07-31T10:58:04;100617.66;;;16.43;100.00
74045;BME280;62389;51.412;5.436;2023-07-31T11:00:31;100625.25;;;16.48;100.00
74045;BME280;62389;51.412;5.436;2023-07-31T11:03:12;100623.47;;;16.48;100.00
74045;BME280;62389;51.412;5.436;2023-07-31T11:05:49;100615.44;;;16.50;100.00
74045;BME280;62389;51.412;5.436;2023-07-31T11:08:26;100621.53;;;16.50;100.00
74045;BME280;62389;51.412;5.436;2023-07-31T11:11:14;100614.59;;;16.49;100.00
74045;BME280;62389;51.412;5.436;2023-07-31T11:13:47;100617.44;;;16.46;100.00
74045;BME280;62389;51.412;5.436;2023-07-31T11:16:17;100620.81;;;16.48;100.00
74045;BME280;62389;51.412;5.436;2023-07-31T11:18:44;100618.41;;;16.45;100.00
74045;BME280;62389;51.412;5.436;2023-07-31T11:21:14;100618.91;;;16.50;100.00
74045;BME280;62389;51.412;5.436;2023-07-31T11:23:41;100608.97;;;16.54;100.00
74045;BME280;62389;51.412;5.436;2023-07-31T11:26:07;100612.47;;;16.54;100.00
74045;BME280;62389;51.412;5.436;2023-07-31T11:28:34;100611.03;;;16.62;100.00
74045;BME280;62389;51.412;5.436;2023-07-31T11:31:01;100614.94;;;16.69;100.00
74045;BME280;62389;51.412;5.436;2023-07-31T11:33:26;100615.78;;;16.69;100.00
74045;BME280;62389;51.412;5.436;2023-07-31T11:35:52;100617.78;;;16.66;100.00
74045;BME280;62389;51.412;5.436;2023-07-31T11:38:22;100602.41;;;16.60;100.00
74045;BME280;62389;51.412;5.436;2023-07-31T11:40:51;100605.38;;;16.55;100.00
74045;BME280;62389;51.412;5.436;2023-07-31T11:43:17;100606.66;;;16.49;100.00
74045;BME280;62389;51.412;5.436;2023-07-31T11:45:52;100609.44;;;16.48;100.00
74045;BME280;62389;51.412;5.436;2023-07-31T11:50:47;100595.72;;;16.43;100.00
74045;BME280;62389;51.412;5.436;2023-07-31T11:53:15;100596.75;;;16.40;100.00
74045;BME280;62389;51.412;5.436;2023-07-31T11:55:41;100592.31;;;16.41;100.00
74045;BME280;62389;51.412;5.436;2023-07-31T11:58:06;100592.94;;;16.44;100.00
74045;BME280;62389;51.412;5.436;2023-07-31T12:00:32;100597.28;;;16.45;100.00
74045;BME280;62389;51.412;5.436;2023-07-31T12:02:57;100590.81;;;16.49;100.00
74045;BME280;62389;51.412;5.436;2023-07-31T12:05:23;100595.91;;;16.52;100.00
74045;BME280;62389;51.412;5.436;2023-07-31T12:07:53;100589.66;;;16.53;100.00
74045;BME280;62389;51.412;5.436;2023-07-31T12:10:23;100587.72;;;16.55;100.00
74045;BME280;62389;51.412;5.436;2023-07-31T12:15:39;100586.34;;;16.63;100.00
74045;BME280;62389;51.412;5.436;2023-07-31T12:20:34;100581.47;;;16.69;100.00
74045;BME280;62389;51.412;5.436;2023-07-31T12:23:01;100579.34;;;16.74;100.00
74045;BME280;62389;51.412;5.436;2023-07-31T12:25:31;100573.63;;;16.80;100.00
74045;BME280;62389;51.412;5.436;2023-07-31T12:27:57;100576.53;;;16.89;100.00
74045;BME280;62389;51.412;5.436;2023-07-31T12:30:27;100558.34;;;16.97;100.00
74045;BME280;62389;51.412;5.436;2023-07-31T12:32:53;100553.41;;;17.03;100.00
74045;BME280;62389;51.412;5.436;2023-07-31T12:35:18;100548.75;;;17.07;100.00
74045;BME280;62389;51.412;5.436;2023-07-31T12:37:43;100547.44;;;17.13;100.00
74045;BME280;62389;51.412;5.436;2023-07-31T12:40:09;100549.75;;;17.17;100.00
74045;BME280;62389;51.412;5.436;2023-07-31T12:42:35;100554.66;;;17.22;100.00
74045;BME280;62389;51.412;5.436;2023-07-31T12:45:00;100557.06;;;17.25;100.00
74045;BME280;62389;51.412;5.436;2023-07-31T12:47:26;100546.16;;;17.29;100.00
74045;BME280;62389;51.412;5.436;2023-07-31T12:49:51;100540.28;;;17.37;100.00
74045;BME280;62389;51.412;5.436;2023-07-31T12:52:16;100526.59;;;17.43;100.00
74045;BME280;62389;51.412;5.436;2023-07-31T12:54:42;100528.88;;;17.48;100.00